Time;durP1;ratioP1;P1;durP2;ratioP2;P2;SDS_P1;SDS_P2;PMS_P1;PMS_P2;Temp;Humidity;BMP_temperature;BMP_pressure;BME280_temperature;BME280_humidity;BME280_pressure;Samples;Min_cycle;Max_cycle;Signal;HPM_P1;HPM_P2
2024/04/17 00:00:35;;;;;;;8.57;3.47;;;8.90;99.90;;;;;;5435157;26;20233;-65
2024/04/17 00:03:01;;;;;;;8.70;3.47;;;8.90;99.90;;;;;;5436957;26;20659;-65
2024/04/17 00:05:26;;;;;;;6.03;3.50;;;8.80;99.90;;;;;;5434415;26;20237;-65
2024/04/17 00:07:52;;;;;;;6.17;2.97;;;8.90;99.90;;;;;;5433560;26;20238;-65
2024/04/17 00:10:18;;;;;;;6.20;3.00;;;8.80;99.90;;;;;;5436409;26;20237;-65
2024/04/17 00:12:43;;;;;;;8.13;3.87;;;8.80;99.90;;;;;;5393085;26;20237;-65
2024/04/17 00:15:09;;;;;;;8.87;3.47;;;8.80;99.90;;;;;;5437233;26;20687;-65
2024/04/17 00:17:35;;;;;;;8.27;3.03;;;8.80;99.90;;;;;;5441178;26;20238;-65
2024/04/17 00:20:00;;;;;;;9.50;3.27;;;8.80;99.90;;;;;;5438076;26;20241;-65
2024/04/17 00:22:26;;;;;;;7.13;3.00;;;8.70;99.90;;;;;;5439951;26;20253;-65
2024/04/17 00:24:52;;;;;;;7.23;3.00;;;8.70;99.90;;;;;;5436325;26;20283;-65
2024/04/17 00:27:17;;;;;;;7.70;3.13;;;8.60;99.90;;;;;;5440508;26;20334;-65
2024/04/17 00:29:43;;;;;;;7.03;2.87;;;8.60;99.90;;;;;;5435791;26;20240;-66
2024/04/17 00:32:08;;;;;;;7.47;3.00;;;8.60;99.90;;;;;;5438752;26;20233;-66
2024/04/17 00:34:34;;;;;;;9.63;3.40;;;8.60;99.90;;;;;;5440001;26;20314;-64
2024/04/17 00:37:00;;;;;;;8.57;2.73;;;8.50;99.90;;;;;;5437896;26;20247;-66
2024/04/17 00:39:26;;;;;;;9.20;3.00;;;8.50;99.90;;;;;;5392192;26;20238;-66
2024/04/17 00:41:52;;;;;;;6.50;2.60;;;8.50;99.90;;;;;;5439728;26;20448;-65
2024/04/17 00:44:17;;;;;;;8.10;3.10;;;8.50;99.90;;;;;;5438316;26;20696;-65
2024/04/17 00:46:44;;;;;;;11.03;3.53;;;8.50;99.90;;;;;;5437156;26;20734;-65
2024/04/17 00:49:11;;;;;;;9.33;3.27;;;8.50;99.90;;;;;;5405503;26;20773;-66
2024/04/17 00:51:38;;;;;;;5.57;3.73;;;8.40;99.90;;;;;;5436221;26;20466;-65
2024/04/17 00:54:05;;;;;;;9.97;3.87;;;8.40;99.90;;;;;;5436538;26;20519;-65
2024/04/17 00:56:32;;;;;;;8.10;3.13;;;8.40;99.90;;;;;;5437655;26;21072;-66
2024/04/17 00:58:59;;;;;;;8.67;3.10;;;8.40;99.90;;;;;;5421821;26;20561;-65
2024/04/17 01:01:24;;;;;;;8.03;4.10;;;8.40;99.90;;;;;;5439385;26;20507;-65
2024/04/17 01:03:50;;;;;;;8.13;3.93;;;8.40;99.90;;;;;;5434854;26;20451;-66
2024/04/17 01:06:16;;;;;;;5.23;3.07;;;8.30;99.90;;;;;;5441004;26;20234;-66
2024/04/17 01:08:42;;;;;;;7.50;3.60;;;8.30;99.90;;;;;;5435632;26;20256;-65
2024/04/17 01:11:08;;;;;;;6.40;3.30;;;8.30;99.90;;;;;;5438439;26;21103;-65
2024/04/17 01:13:34;;;;;;;6.23;3.30;;;8.20;99.90;;;;;;5436582;26;20452;-66
2024/04/17 01:16:00;;;;;;;6.70;4.47;;;8.20;99.90;;;;;;5436637;26;20243;-65
2024/04/17 01:18:26;;;;;;;5.83;3.57;;;8.10;99.90;;;;;;5433275;26;20756;-66
2024/04/17 01:20:51;;;;;;;9.20;3.77;;;8.10;99.90;;;;;;5437036;26;21293;-66
2024/04/17 01:23:17;;;;;;;7.63;3.40;;;8.10;99.90;;;;;;5433872;26;20550;-65
2024/04/17 01:25:43;;;;;;;14.77;4.20;;;8.10;99.90;;;;;;5435812;26;20513;-65
2024/04/17 01:28:09;;;;;;;9.93;3.07;;;8.00;99.90;;;;;;5438723;26;20252;-66
2024/04/17 01:30:35;;;;;;;9.57;3.67;;;8.00;99.90;;;;;;5441274;26;20242;-66
2024/04/17 01:33:00;;;;;;;10.23;3.80;;;8.00;99.90;;;;;;5437468;26;20567;-65
2024/04/17 01:35:26;;;;;;;8.40;2.60;;;8.00;99.90;;;;;;5439207;26;20760;-65
2024/04/17 01:37:52;;;;;;;8.60;2.90;;;8.00;99.90;;;;;;5434052;26;20257;-65
2024/04/17 01:40:17;;;;;;;8.97;2.80;;;8.00;99.90;;;;;;5439602;26;20256;-66
2024/04/17 01:42:43;;;;;;;8.37;3.47;;;7.90;99.90;;;;;;5437670;26;20719;-66
2024/04/17 01:45:09;;;;;;;9.10;3.73;;;7.90;99.90;;;;;;5438939;26;20555;-65
2024/04/17 01:47:35;;;;;;;7.20;3.63;;;7.80;99.90;;;;;;5439597;26;20319;-65
2024/04/17 01:50:02;;;;;;;4.90;3.00;;;7.80;99.90;;;;;;5436701;26;20231;-65
2024/04/17 01:52:28;;;;;;;8.77;3.47;;;7.80;99.90;;;;;;5440267;26;20548;-64
2024/04/17 01:54:54;;;;;;;9.93;3.23;;;7.80;99.90;;;;;;5437220;26;21143;-65
2024/04/17 01:57:19;;;;;;;11.50;3.23;;;7.80;99.90;;;;;;5406245;26;20521;-65
2024/04/17 01:59:45;;;;;;;5.43;2.83;;;7.80;99.90;;;;;;5436666;26;20245;-66
2024/04/17 02:02:11;;;;;;;7.57;3.27;;;7.80;99.90;;;;;;5439055;26;20245;-66
2024/04/17 02:04:37;;;;;;;8.43;3.20;;;7.70;99.90;;;;;;5439143;26;20234;-65
2024/04/17 02:07:02;;;;;;;9.83;3.30;;;7.70;99.90;;;;;;5436789;26;20251;-65
2024/04/17 02:09:28;;;;;;;5.37;3.10;;;7.70;99.90;;;;;;5438723;26;20716;-65
2024/04/17 02:11:54;;;;;;;6.93;2.33;;;7.60;99.90;;;;;;5436182;26;20230;-65
2024/04/17 02:14:19;;;;;;;8.10;3.10;;;7.60;99.90;;;;;;5438975;26;20250;-65
2024/04/17 02:16:45;;;;;;;8.33;3.10;;;7.60;99.90;;;;;;5436757;26;20233;-65
2024/04/17 02:19:11;;;;;;;6.90;2.70;;;7.60;99.90;;;;;;5395088;26;20244;-66
2024/04/17 02:21:36;;;;;;;6.00;3.00;;;7.60;99.90;;;;;;5438337;26;20318;-66
2024/04/17 02:24:02;;;;;;;6.63;2.93;;;7.60;99.90;;;;;;5436346;26;20704;-64
2024/04/17 02:26:28;;;;;;;7.23;3.20;;;7.60;99.90;;;;;;5438378;26;21097;-65
2024/04/17 02:28:54;;;;;;;10.73;2.90;;;7.50;99.90;;;;;;5435431;26;20334;-65
2024/04/17 02:31:20;;;;;;;7.87;2.70;;;7.50;99.90;;;;;;5394361;26;20471;-65
2024/04/17 02:33:45;;;;;;;7.80;3.50;;;7.50;99.90;;;;;;5434538;26;20585;-65
2024/04/17 02:36:12;;;;;;;4.43;3.03;;;7.50;99.90;;;;;;5437727;26;20238;-65
2024/04/17 02:38:37;;;;;;;4.63;2.70;;;7.50;99.90;;;;;;5435238;26;20280;-65
2024/04/17 02:41:03;;;;;;;10.80;2.93;;;7.40;99.90;;;;;;5435923;26;20514;-65
2024/04/17 02:43:29;;;;;;;9.90;3.70;;;7.40;99.90;;;;;;5434932;26;20246;-66
2024/04/17 02:45:55;;;;;;;7.63;3.50;;;7.30;99.90;;;;;;5392983;26;20234;-66
2024/04/17 02:48:20;;;;;;;4.93;3.13;;;7.10;99.90;;;;;;5437877;26;20280;-66
2024/04/17 02:50:46;;;;;;;8.57;4.03;;;7.10;99.90;;;;;;5435384;26;20966;-65
2024/04/17 02:53:12;;;;;;;12.30;3.47;;;7.10;99.90;;;;;;5437730;26;20237;-65
2024/04/17 02:55:37;;;;;;;8.40;4.03;;;7.10;99.90;;;;;;5393005;26;20253;-65
2024/04/17 02:58:03;;;;;;;6.83;3.50;;;7.10;99.90;;;;;;5435526;26;20305;-65
2024/04/17 03:00:29;;;;;;;7.33;3.70;;;7.10;99.90;;;;;;5437358;26;20269;-66
2024/04/17 03:02:55;;;;;;;8.90;3.17;;;7.10;99.90;;;;;;5434305;26;20230;-65
2024/04/17 03:05:24;;;;;;;10.00;3.70;;;7.10;99.90;;;;;;5438079;26;20309;-66
2024/04/17 03:07:49;;;;;;;8.00;3.67;;;7.20;99.90;;;;;;5433159;26;20502;-65
2024/04/17 03:10:15;;;;;;;5.80;3.00;;;7.10;99.90;;;;;;5437620;26;20471;-66
2024/04/17 03:12:41;;;;;;;6.00;3.33;;;7.10;99.90;;;;;;5435220;26;20268;-65
2024/04/17 03:15:07;;;;;;;14.73;3.70;;;7.10;99.90;;;;;;5435235;26;20289;-65
2024/04/17 03:17:33;;;;;;;7.70;4.37;;;7.10;99.90;;;;;;5436713;26;20968;-66
2024/04/17 03:19:58;;;;;;;7.67;3.40;;;7.10;99.90;;;;;;5432390;26;20478;-65
2024/04/17 03:22:24;;;;;;;6.33;3.60;;;7.10;99.90;;;;;;5436812;26;20998;-65
2024/04/17 03:24:53;;;;;;;11.73;4.30;;;7.10;99.90;;;;;;5434208;26;20342;-66
2024/04/17 03:27:19;;;;;;;6.97;3.80;;;7.10;99.90;;;;;;5434920;26;20277;-65
2024/04/17 03:29:45;;;;;;;5.00;3.03;;;7.10;99.90;;;;;;5431061;26;20504;-65
2024/04/17 03:32:11;;;;;;;11.53;3.77;;;7.10;99.90;;;;;;5437363;26;20267;-64
2024/04/17 03:34:36;;;;;;;5.40;4.03;;;7.10;99.90;;;;;;5435951;26;20467;-66
2024/04/17 03:37:02;;;;;;;5.13;3.30;;;7.00;99.90;;;;;;5403183;26;20250;-66
2024/04/17 03:39:28;;;;;;;11.80;3.10;;;7.00;99.90;;;;;;5436636;26;20337;-65
2024/04/17 03:41:53;;;;;;;12.67;3.90;;;7.00;99.90;;;;;;5429543;26;20309;-65
2024/04/17 03:44:19;;;;;;;6.00;3.40;;;7.00;99.90;;;;;;5436596;26;20631;-65
2024/04/17 03:46:45;;;;;;;10.80;3.80;;;6.90;99.90;;;;;;5436314;26;20309;-65
2024/04/17 03:49:12;;;;;;;6.40;3.63;;;6.90;99.90;;;;;;5435971;26;20295;-66
2024/04/17 03:51:37;;;;;;;13.50;3.53;;;6.90;99.90;;;;;;5439147;26;20823;-65
2024/04/17 03:54:03;;;;;;;6.07;3.27;;;6.90;99.90;;;;;;5436980;26;20455;-65
2024/04/17 03:56:29;;;;;;;8.90;4.10;;;6.90;99.90;;;;;;5438057;26;20281;-65
2024/04/17 03:58:54;;;;;;;11.50;4.20;;;6.90;99.90;;;;;;5437771;26;20234;-65
2024/04/17 04:01:20;;;;;;;8.10;4.13;;;6.90;99.90;;;;;;5439420;26;20758;-66
2024/04/17 04:03:46;;;;;;;6.33;3.50;;;6.90;99.90;;;;;;5437781;26;20762;-66
2024/04/17 04:06:11;;;;;;;12.77;4.27;;;7.00;99.90;;;;;;5441173;26;20815;-66
2024/04/17 04:08:37;;;;;;;10.77;5.80;;;6.90;99.90;;;;;;5440304;26;20296;-65
2024/04/17 04:11:03;;;;;;;9.47;3.77;;;6.90;99.90;;;;;;5436269;26;20752;-66
2024/04/17 04:13:28;;;;;;;12.70;4.50;;;6.90;99.90;;;;;;5441058;26;20237;-65
2024/04/17 04:15:54;;;;;;;6.30;3.70;;;6.90;99.90;;;;;;5437125;26;20299;-65
2024/04/17 04:18:20;;;;;;;5.10;3.60;;;6.90;99.90;;;;;;5441099;26;20230;-65
2024/04/17 04:20:46;;;;;;;13.87;4.60;;;6.90;99.90;;;;;;5438880;26;20908;-65
2024/04/17 04:23:12;;;;;;;9.80;4.87;;;6.90;99.90;;;;;;5440843;26;20285;-65
2024/04/17 04:25:38;;;;;;;13.37;4.90;;;6.90;99.90;;;;;;5435790;26;21508;-65
2024/04/17 04:28:04;;;;;;;8.30;4.50;;;6.90;99.90;;;;;;5435989;26;20466;-65
2024/04/17 04:30:31;;;;;;;8.87;4.17;;;7.00;99.90;;;;;;5440123;26;20689;-65
2024/04/17 04:32:57;;;;;;;9.50;4.90;;;6.90;99.90;;;;;;5439066;26;20346;-65
2024/04/17 04:35:23;;;;;;;9.50;3.80;;;7.00;99.90;;;;;;5439635;26;20528;-65
2024/04/17 04:37:49;;;;;;;10.37;4.27;;;7.00;99.90;;;;;;5438500;26;20230;-65
2024/04/17 04:40:14;;;;;;;12.10;5.50;;;6.90;99.90;;;;;;5435849;26;20260;-65
2024/04/17 04:42:40;;;;;;;10.37;4.57;;;6.90;99.90;;;;;;5435449;26;20248;-65
2024/04/17 04:45:06;;;;;;;8.10;4.33;;;6.80;99.90;;;;;;5439654;26;20261;-65
2024/04/17 04:47:32;;;;;;;6.37;4.07;;;6.80;99.90;;;;;;5433517;26;20304;-65
2024/04/17 04:49:59;;;;;;;9.23;4.47;;;6.80;99.90;;;;;;5430666;26;20455;-64
2024/04/17 04:52:24;;;;;;;7.30;4.17;;;6.80;99.90;;;;;;5430016;26;20292;-65
2024/04/17 04:54:50;;;;;;;8.57;6.63;;;6.80;99.90;;;;;;5429610;26;20510;-65
2024/04/17 04:57:19;;;;;;;10.03;3.70;;;6.80;99.90;;;;;;5436503;26;20234;-64
2024/04/17 04:59:45;;;;;;;10.33;4.47;;;6.90;99.90;;;;;;5435778;26;20281;-65
2024/04/17 05:02:11;;;;;;;10.50;4.50;;;6.80;99.90;;;;;;5439820;26;20510;-65
2024/04/17 05:04:37;;;;;;;8.10;4.87;;;6.90;99.90;;;;;;5438239;26;20466;-65
2024/04/17 05:07:02;;;;;;;9.47;4.50;;;6.90;99.90;;;;;;5438019;26;20281;-65
2024/04/17 05:09:28;;;;;;;6.37;4.30;;;6.90;99.90;;;;;;5438953;26;20229;-65
2024/04/17 05:11:54;;;;;;;14.00;4.50;;;7.00;99.90;;;;;;5433129;26;20334;-65
2024/04/17 05:14:19;;;;;;;9.47;4.33;;;7.00;99.90;;;;;;5439889;26;20579;-65
2024/04/17 05:16:45;;;;;;;6.70;4.00;;;7.00;99.90;;;;;;5436947;26;20942;-65
2024/04/17 05:19:11;;;;;;;7.13;3.60;;;6.90;99.90;;;;;;5439027;26;20277;-65
2024/04/17 05:21:36;;;;;;;9.33;4.17;;;6.90;99.90;;;;;;5438614;26;20738;-65
2024/04/17 05:24:02;;;;;;;13.90;6.20;;;6.90;99.90;;;;;;5437396;26;20388;-65
2024/04/17 05:26:28;;;;;;;7.90;6.27;;;7.00;99.90;;;;;;5435670;26;20639;-65
2024/04/17 05:28:54;;;;;;;12.27;5.10;;;7.00;99.90;;;;;;5434344;26;20294;-65
2024/04/17 05:31:20;;;;;;;11.00;5.30;;;7.10;99.90;;;;;;5433466;26;20284;-65
2024/04/17 05:33:47;;;;;;;10.70;5.40;;;7.00;99.90;;;;;;5434999;26;20452;-65
2024/04/17 05:36:13;;;;;;;10.17;5.03;;;7.10;99.90;;;;;;5438561;26;20234;-65
2024/04/17 05:38:39;;;;;;;10.33;4.83;;;7.10;99.90;;;;;;5437223;26;20614;-65
2024/04/17 05:41:04;;;;;;;11.37;5.60;;;7.10;99.90;;;;;;5436855;26;20597;-65
2024/04/17 05:43:30;;;;;;;9.00;5.80;;;7.20;99.90;;;;;;5434478;26;20242;-65
2024/04/17 05:45:56;;;;;;;8.47;6.40;;;7.20;99.90;;;;;;5436581;26;20811;-66
2024/04/17 05:48:21;;;;;;;16.10;6.47;;;7.20;99.90;;;;;;5438345;26;20238;-65
2024/04/17 05:50:47;;;;;;;11.47;5.77;;;7.20;99.90;;;;;;5433742;26;20704;-66
2024/04/17 05:53:13;;;;;;;13.30;6.03;;;7.20;99.90;;;;;;5438336;26;20242;-65
2024/04/17 05:55:39;;;;;;;11.00;6.10;;;7.20;99.90;;;;;;5437927;26;20230;-66
2024/04/17 05:58:06;;;;;;;11.33;6.73;;;7.20;99.90;;;;;;5436679;26;20775;-65
2024/04/17 06:00:33;;;;;;;13.47;7.10;;;7.30;99.90;;;;;;5434302;26;20527;-65
2024/04/17 06:02:58;;;;;;;12.40;7.93;;;7.40;99.90;;;;;;5436706;26;21355;-65
2024/04/17 06:05:24;;;;;;;11.70;7.77;;;7.60;99.90;;;;;;5437659;26;20467;-66
2024/04/17 06:07:50;;;;;;;11.83;7.30;;;7.70;99.90;;;;;;5432765;26;20393;-65
2024/04/17 06:10:16;;;;;;;18.57;7.57;;;7.70;99.90;;;;;;5437474;26;20287;-66
2024/04/17 06:12:41;;;;;;;17.57;9.13;;;7.80;99.90;;;;;;5436050;26;21078;-66
2024/04/17 06:15:07;;;;;;;12.40;7.40;;;7.80;99.90;;;;;;5434683;26;20999;-66
2024/04/17 06:17:33;;;;;;;15.87;8.47;;;8.00;99.90;;;;;;5437823;26;20323;-65
2024/04/17 06:19:58;;;;;;;12.23;7.57;;;8.10;99.90;;;;;;5430508;26;20469;-66
2024/04/17 06:22:24;;;;;;;12.47;7.40;;;8.20;99.90;;;;;;5431700;26;21054;-66
2024/04/17 06:24:50;;;;;;;14.67;8.13;;;8.20;99.90;;;;;;5434953;26;20283;-66
2024/04/17 06:27:16;;;;;;;13.00;7.63;;;8.10;99.90;;;;;;5434322;26;20242;-65
2024/04/17 06:29:43;;;;;;;10.63;6.57;;;8.00;99.90;;;;;;5431733;26;20505;-66
2024/04/17 06:32:08;;;;;;;9.20;7.13;;;8.00;99.90;;;;;;5420832;26;20288;-65
2024/04/17 06:34:34;;;;;;;13.33;6.83;;;8.00;99.90;;;;;;5416151;26;20459;-65
2024/04/17 06:37:00;;;;;;;7.57;6.20;;;8.00;99.90;;;;;;5434664;26;20326;-65
2024/04/17 06:39:25;;;;;;;9.80;5.23;;;7.90;99.90;;;;;;5433855;26;20284;-65
2024/04/17 06:41:51;;;;;;;9.10;4.97;;;7.90;99.90;;;;;;5428552;26;21029;-65
2024/04/17 06:44:17;;;;;;;6.60;4.97;;;7.90;99.90;;;;;;5431014;26;20289;-65
2024/04/17 06:46:42;;;;;;;9.33;4.73;;;7.90;99.90;;;;;;5431772;26;20239;-65
2024/04/17 06:49:09;;;;;;;7.43;5.47;;;8.00;99.90;;;;;;5428993;26;20245;-65
2024/04/17 06:51:35;;;;;;;8.63;6.03;;;8.00;99.90;;;;;;5429272;26;20297;-65
2024/04/17 06:54:00;;;;;;;7.87;5.93;;;8.10;99.90;;;;;;5427797;26;20463;-65
2024/04/17 06:56:28;;;;;;;8.00;5.47;;;8.10;99.90;;;;;;5428160;26;20499;-65
2024/04/17 06:58:56;;;;;;;9.67;6.70;;;8.10;99.90;;;;;;5389598;26;20229;-65
2024/04/17 07:01:22;;;;;;;9.70;5.60;;;7.80;99.90;;;;;;5427594;26;20631;-65
2024/04/17 07:03:48;;;;;;;9.90;6.90;;;7.70;99.90;;;;;;5429198;26;21044;-65
2024/04/17 07:06:13;;;;;;;11.80;7.53;;;7.70;99.90;;;;;;5433326;26;20234;-65
2024/04/17 07:08:39;;;;;;;11.37;7.00;;;7.80;99.90;;;;;;5430893;26;20230;-65
2024/04/17 07:11:05;;;;;;;9.07;6.80;;;7.80;99.90;;;;;;5434390;26;20904;-65
2024/04/17 07:13:30;;;;;;;11.90;7.13;;;7.90;99.90;;;;;;5433559;26;20242;-65
2024/04/17 07:15:57;;;;;;;11.60;8.20;;;7.90;99.90;;;;;;5415439;26;20242;-65
2024/04/17 07:18:25;;;;;;;11.17;8.50;;;7.90;99.90;;;;;;5433835;26;20330;-65
2024/04/17 07:20:50;;;;;;;9.70;7.50;;;8.00;99.90;;;;;;5431791;26;21102;-65
2024/04/17 07:23:17;;;;;;;20.43;9.97;;;8.00;99.90;;;;;;5432190;26;20526;-65
2024/04/17 07:25:43;;;;;;;12.43;7.43;;;8.00;99.90;;;;;;5432908;26;20226;-65
2024/04/17 07:28:09;;;;;;;7.93;6.93;;;8.10;99.90;;;;;;5426831;26;21284;-65
2024/04/17 07:30:41;;;;;;;8.40;7.60;;;8.10;99.90;;;;;;5432653;26;20459;-65
2024/04/17 07:33:07;;;;;;;9.20;6.93;;;8.10;99.90;;;;;;5432772;26;20675;-65
2024/04/17 07:35:33;;;;;;;8.60;7.10;;;8.00;99.90;;;;;;5433022;26;20455;-64
2024/04/17 07:37:59;;;;;;;9.70;7.80;;;8.10;99.90;;;;;;5435055;26;20464;-65
2024/04/17 07:40:24;;;;;;;8.80;7.00;;;8.10;99.90;;;;;;5433365;26;20237;-65
2024/04/17 07:42:50;;;;;;;6.87;6.00;;;8.20;99.90;;;;;;5433431;26;20277;-65
2024/04/17 07:45:16;;;;;;;8.10;6.43;;;8.10;99.90;;;;;;5434268;26;20500;-65
2024/04/17 07:47:42;;;;;;;9.80;7.07;;;8.10;99.90;;;;;;5431767;26;20238;-65
2024/04/17 07:50:07;;;;;;;14.07;7.27;;;8.00;99.90;;;;;;5432619;26;20762;-65
2024/04/17 07:52:33;;;;;;;9.50;7.63;;;7.90;99.90;;;;;;5433205;26;20301;-65
2024/04/17 07:54:59;;;;;;;8.60;7.70;;;7.90;99.90;;;;;;5427971;26;20294;-65
2024/04/17 07:57:26;;;;;;;8.33;7.37;;;8.00;99.90;;;;;;5434226;26;20459;-65
2024/04/17 07:59:51;;;;;;;9.37;8.27;;;8.00;99.90;;;;;;5421486;26;21836;-65
2024/04/17 08:02:17;;;;;;;9.50;7.80;;;8.10;99.90;;;;;;5424423;26;20460;-65
2024/04/17 08:04:43;;;;;;;9.70;7.80;;;8.10;99.90;;;;;;5432550;26;20234;-65
2024/04/17 08:07:08;;;;;;;9.30;7.93;;;8.10;99.90;;;;;;5432999;26;20961;-65
2024/04/17 08:09:34;;;;;;;10.47;7.17;;;8.20;99.90;;;;;;5432265;26;21033;-65
2024/04/17 08:12:00;;;;;;;10.23;7.50;;;8.20;99.90;;;;;;5432100;26;20298;-65
2024/04/17 08:14:25;;;;;;;8.97;6.97;;;8.30;99.90;;;;;;5433047;26;20233;-65
2024/04/17 08:16:51;;;;;;;8.50;6.70;;;8.30;99.90;;;;;;5387861;26;20280;-65
2024/04/17 08:19:17;;;;;;;7.83;7.03;;;8.30;99.90;;;;;;5398567;26;20752;-65
2024/04/17 08:21:43;;;;;;;7.57;6.77;;;8.30;99.90;;;;;;5435235;26;20234;-65
2024/04/17 08:24:08;;;;;;;8.10;6.00;;;8.30;99.90;;;;;;5429202;26;20563;-65
2024/04/17 08:26:34;;;;;;;8.17;7.27;;;8.20;99.90;;;;;;5389412;26;20712;-65
2024/04/17 08:29:00;;;;;;;6.97;6.27;;;8.30;99.90;;;;;;5430169;26;20295;-65
2024/04/17 08:31:29;;;;;;;7.30;6.30;;;8.30;99.90;;;;;;5429665;26;20765;-65
2024/04/17 08:33:54;;;;;;;6.87;6.17;;;8.30;99.90;;;;;;5434299;26;20320;-65
2024/04/17 08:36:20;;;;;;;7.20;5.90;;;8.30;99.90;;;;;;5435742;26;20471;-65
2024/04/17 08:38:46;;;;;;;6.10;5.10;;;8.30;99.90;;;;;;5434226;26;20241;-65
2024/04/17 08:41:12;;;;;;;6.23;5.60;;;8.30;99.90;;;;;;5434274;26;20233;-65
2024/04/17 08:43:38;;;;;;;5.80;5.20;;;8.30;99.90;;;;;;5439548;26;20451;-65
2024/04/17 08:46:04;;;;;;;5.83;4.90;;;8.30;99.90;;;;;;5429006;26;20243;-65
2024/04/17 08:48:32;;;;;;;4.57;4.17;;;8.30;99.90;;;;;;5431481;26;20459;-65
2024/04/17 08:50:58;;;;;;;5.73;4.20;;;8.20;99.90;;;;;;5433502;26;20451;-65
2024/04/17 08:53:26;;;;;;;5.57;4.70;;;8.10;99.90;;;;;;5436143;26;20447;-65
2024/04/17 08:55:52;;;;;;;4.87;4.00;;;8.10;99.90;;;;;;5432596;26;20542;-65
2024/04/17 08:58:18;;;;;;;4.80;4.40;;;8.20;99.90;;;;;;5432752;26;20447;-65
2024/04/17 09:00:51;;;;;;;4.33;3.80;;;8.20;99.90;;;;;;5433851;26;20463;-65
2024/04/17 09:03:24;;;;;;;5.50;3.87;;;8.30;99.90;;;;;;5434503;26;20544;-65
2024/04/17 09:05:51;;;;;;;4.13;3.83;;;8.30;99.90;;;;;;5435802;26;20451;-65
2024/04/17 09:08:18;;;;;;;5.20;4.33;;;8.30;99.90;;;;;;5388411;26;20534;-65
2024/04/17 09:10:45;;;;;;;3.33;3.13;;;8.30;99.90;;;;;;5433682;26;20532;-65
2024/04/17 09:13:12;;;;;;;2.90;2.43;;;8.30;99.90;;;;;;5437936;26;20459;-65
2024/04/17 09:15:38;;;;;;;2.50;2.30;;;8.20;99.90;;;;;;5433301;26;21068;-65
2024/04/17 09:18:08;;;;;;;3.57;2.47;;;8.20;99.90;;;;;;5394398;26;20503;-65
2024/04/17 09:20:37;;;;;;;3.47;2.60;;;8.20;99.90;;;;;;5427378;26;20571;-65
2024/04/17 09:23:09;;;;;;;2.10;2.00;;;8.20;99.90;;;;;;5431689;26;20516;-65
2024/04/17 09:25:37;;;;;;;2.47;2.20;;;8.20;99.90;;;;;;5434742;26;20455;-65
2024/04/17 09:28:02;;;;;;;2.73;2.43;;;8.10;99.90;;;;;;5432378;26;20511;-65
2024/04/17 09:30:28;;;;;;;2.70;2.50;;;8.20;99.90;;;;;;5427286;26;20813;-65
2024/04/17 09:32:54;;;;;;;3.13;2.83;;;8.20;99.90;;;;;;5433282;26;20588;-65
2024/04/17 09:35:19;;;;;;;3.73;2.90;;;8.20;99.90;;;;;;5435002;26;20237;-65
2024/04/17 09:37:45;;;;;;;6.23;3.90;;;8.30;99.90;;;;;;5432849;26;20776;-65
2024/04/17 09:40:11;;;;;;;1.90;1.70;;;8.30;99.90;;;;;;5389970;26;20238;-65
2024/04/17 09:42:41;;;;;;;2.13;1.57;;;8.30;99.90;;;;;;5434841;26;20264;-65
2024/04/17 09:45:13;;;;;;;1.70;1.60;;;8.30;99.90;;;;;;5432720;26;20468;-65
2024/04/17 09:47:42;;;;;;;2.40;1.90;;;8.40;99.90;;;;;;5437357;26;21333;-65
2024/04/17 09:50:14;;;;;;;1.60;1.50;;;8.40;99.90;;;;;;5432261;26;20463;-65
2024/04/17 09:52:42;;;;;;;2.03;1.40;;;8.60;99.90;;;;;;5432277;26;20471;-65
2024/04/17 09:55:09;;;;;;;1.27;1.03;;;8.70;99.90;;;;;;5431482;26;20565;-65
2024/04/17 09:57:35;;;;;;;1.33;1.00;;;8.80;99.90;;;;;;5432719;26;20443;-65
2024/04/17 10:00:02;;;;;;;1.53;0.83;;;8.90;99.90;;;;;;5424082;26;20470;-65
2024/04/17 10:02:29;;;;;;;2.03;1.10;;;9.10;99.90;;;;;;5432505;26;20565;-65
2024/04/17 10:04:56;;;;;;;1.70;1.40;;;9.00;99.90;;;;;;5423866;26;20515;-65
2024/04/17 10:07:24;;;;;;;1.47;1.07;;;9.10;99.90;;;;;;5432814;26;20463;-65
2024/04/17 10:09:52;;;;;;;1.30;1.00;;;9.20;99.90;;;;;;5387900;26;20463;-65
2024/04/17 10:12:21;;;;;;;1.63;1.03;;;9.20;99.90;;;;;;5430821;26;20455;-65
2024/04/17 10:14:48;;;;;;;1.60;1.30;;;9.20;99.90;;;;;;5435224;26;20471;-65
2024/04/17 10:17:13;;;;;;;4.43;1.60;;;9.00;99.90;;;;;;5430472;26;20448;-65
2024/04/17 10:19:49;;;;;;;6.43;1.90;;;8.90;99.90;;;;;;5436754;26;20506;-65
2024/04/17 10:22:16;;;;;;;3.73;2.17;;;8.90;99.90;;;;;;5431752;26;20271;-65
2024/04/17 10:24:45;;;;;;;4.40;1.97;;;8.90;99.90;;;;;;5431625;26;20464;-65
2024/04/17 10:27:21;;;;;;;4.40;3.10;;;9.00;99.90;;;;;;5431728;26;21148;-65
2024/04/17 10:29:47;;;;;;;5.00;4.10;;;9.20;99.90;;;;;;5429085;26;20467;-65
2024/04/17 10:32:14;;;;;;;6.57;4.57;;;9.20;99.90;;;;;;5427687;26;20478;-64
2024/04/17 10:34:46;;;;;;;6.63;6.03;;;9.30;99.90;;;;;;5432838;26;20463;-65
2024/04/17 10:37:14;;;;;;;6.23;4.97;;;9.40;99.90;;;;;;5431613;26;20493;-65
2024/04/17 10:39:40;;;;;;;5.80;5.20;;;9.50;99.90;;;;;;5430874;26;20463;-65
2024/04/17 10:42:07;;;;;;;6.60;6.00;;;9.60;99.90;;;;;;5435702;26;20875;-65
2024/04/17 10:44:35;;;;;;;6.27;5.30;;;9.70;99.90;;;;;;5433182;26;20817;-65
2024/04/17 10:47:04;;;;;;;6.30;5.13;;;9.80;99.90;;;;;;5430607;26;20621;-65
2024/04/17 10:49:40;;;;;;;5.93;5.30;;;9.60;99.90;;;;;;5431003;26;20562;-65
2024/04/17 10:52:06;;;;;;;7.97;5.20;;;9.80;99.90;;;;;;5428757;26;20558;-65
2024/04/17 10:54:34;;;;;;;6.57;4.47;;;9.80;99.90;;;;;;5430344;26;20463;-66
2024/04/17 10:57:03;;;;;;;5.23;4.83;;;10.00;99.90;;;;;;5424858;26;20243;-65
2024/04/17 10:59:29;;;;;;;5.00;4.10;;;10.20;99.90;;;;;;5384316;26;20556;-65
2024/04/17 11:01:55;;;;;;;5.43;4.07;;;10.30;99.90;;;;;;5381872;26;20507;-65
2024/04/17 11:04:23;;;;;;;5.67;3.83;;;10.50;99.90;;;;;;5435598;26;20255;-64
2024/04/17 11:06:49;;;;;;;7.93;4.10;;;10.70;99.90;;;;;;5433211;26;20595;-64
2024/04/17 11:09:16;;;;;;;3.93;3.27;;;10.90;99.90;;;;;;5424624;26;20475;-63
2024/04/17 11:11:46;;;;;;;5.20;4.30;;;11.00;99.90;;;;;;5400650;26;20464;-68
2024/04/17 11:14:16;;;;;;;5.20;4.17;;;11.00;99.90;;;;;;5437398;26;20573;-64
2024/04/17 11:16:42;;;;;;;4.90;4.10;;;11.10;99.90;;;;;;5391124;26;20491;-66
2024/04/17 11:19:09;;;;;;;27.53;6.60;;;11.20;99.90;;;;;;5436622;26;20892;-67
2024/04/17 11:21:35;;;;;;;7.20;4.83;;;11.20;99.90;;;;;;5437327;26;21063;-67
2024/04/17 11:24:02;;;;;;;4.97;3.57;;;11.30;99.90;;;;;;5431975;26;20459;-68
2024/04/17 11:26:30;;;;;;;4.90;3.83;;;11.40;99.90;;;;;;5437616;26;20451;-68
2024/04/17 11:28:56;;;;;;;4.00;3.60;;;11.20;99.90;;;;;;5435522;26;20451;-68
2024/04/17 11:31:23;;;;;;;4.27;3.50;;;10.90;99.90;;;;;;5436030;26;20579;-68
2024/04/17 11:33:48;;;;;;;6.80;3.50;;;10.80;99.90;;;;;;5424936;26;20528;-68
2024/04/17 11:36:14;;;;;;;3.80;2.07;;;10.80;99.90;;;;;;5437292;26;20455;-68
2024/04/17 11:38:50;;;;;;;1.90;1.70;;;10.80;99.90;;;;;;5403539;26;20355;-68
2024/04/17 11:41:16;;;;;;;2.60;1.47;;;10.70;99.90;;;;;;5434718;26;20229;-68
2024/04/17 11:43:43;;;;;;;5.10;1.47;;;10.60;99.90;;;;;;5435108;26;20511;-68
2024/04/17 11:46:13;;;;;;;1.23;1.13;;;10.40;99.90;;;;;;5435596;26;21440;-68
2024/04/17 11:48:39;;;;;;;1.80;1.13;;;10.20;99.90;;;;;;5434321;26;21022;-68
2024/04/17 11:51:05;;;;;;;1.93;0.97;;;10.20;99.90;;;;;;5435004;26;20448;-67
2024/04/17 11:53:31;;;;;;;0.90;0.80;;;10.10;99.90;;;;;;5433700;26;20516;-68
2024/04/17 11:55:56;;;;;;;1.30;1.20;;;10.20;99.90;;;;;;5389774;26;20284;-68
2024/04/17 11:58:22;;;;;;;1.80;1.20;;;10.10;99.90;;;;;;5436414;26;20241;-68
2024/04/17 12:00:49;;;;;;;1.80;1.17;;;10.10;99.90;;;;;;5432587;26;20269;-68
2024/04/17 12:03:14;;;;;;;3.23;1.43;;;10.20;99.90;;;;;;5435528;26;20234;-68
2024/04/17 12:05:40;;;;;;;1.90;1.70;;;10.20;99.90;;;;;;5433763;26;20524;-67
2024/04/17 12:08:07;;;;;;;2.50;1.30;;;10.50;99.90;;;;;;5438769;26;20242;-68
2024/04/17 12:10:33;;;;;;;1.30;1.20;;;10.60;99.90;;;;;;5438667;26;20234;-68
2024/04/17 12:12:58;;;;;;;1.20;1.10;;;11.00;99.90;;;;;;5436060;26;20577;-68
2024/04/17 12:15:24;;;;;;;4.10;1.30;;;11.10;99.90;;;;;;5438700;26;20233;-68
2024/04/17 12:17:50;;;;;;;1.30;1.20;;;11.20;99.90;;;;;;5437559;26;20264;-68
2024/04/17 12:20:15;;;;;;;1.67;1.23;;;11.30;99.90;;;;;;5430421;26;20607;-68
2024/04/17 12:22:41;;;;;;;1.60;1.40;;;11.30;99.90;;;;;;5433838;26;21178;-68
2024/04/17 12:27:51;;;;;;;2.73;1.43;;;11.50;99.90;;;;;;5433771;26;20234;-68
2024/04/17 12:30:17;;;;;;;3.73;1.77;;;11.60;99.90;;;;;;5436888;26;20447;-68
2024/04/17 12:32:43;;;;;;;2.30;1.23;;;11.70;99.90;;;;;;5435106;26;20233;-68
2024/04/17 12:35:09;;;;;;;2.50;1.30;;;11.80;99.90;;;;;;5421399;26;20247;-68
2024/04/17 12:37:38;;;;;;;2.53;1.50;;;11.80;99.90;;;;;;5435271;26;20226;-68
2024/04/17 12:40:05;;;;;;;3.40;1.50;;;11.70;99.90;;;;;;5436615;26;21258;-68
2024/04/17 12:42:30;;;;;;;1.43;1.23;;;11.40;99.90;;;;;;5434523;26;20467;-68
2024/04/17 12:44:56;;;;;;;3.20;1.50;;;11.20;99.90;;;;;;5435625;26;20591;-68
2024/04/17 12:47:22;;;;;;;4.07;1.23;;;11.00;99.90;;;;;;5435992;26;20226;-68
2024/04/17 12:49:47;;;;;;;1.40;1.30;;;10.90;99.90;;;;;;5435688;26;20338;-68